Weather reports worldwide

Advertisment
Paganella, Italy (16022): temperature & dewpoint: 13.12.2018 05:00:00 - 19.12.2018 05:00:00 (CET)Paganella, Italy (16022): wind speed: 13.12.2018 05:00:00 - 19.12.2018 05:00:00 (CET)Paganella, Italy (16022): wind direction: 13.12.2018 05:00:00 - 19.12.2018 05:00:00 (CET)Paganella, Italy (16022): visibility: 13.12.2018 05:00:00 - 19.12.2018 05:00:00 (CET)Paganella, Italy (16022): sunshine duration: 13.12.2018 05:00:00 - 19.12.2018 05:00:00 (CET)
Date & Time tt [°C] td [°C] ff [km/h] ff [kn] dd vv [km] sd [min]
19.12.2018 05:00:00 -5,0 -14,1 0 0 N 70 -
19.12.2018 04:00:00 -5,0 -13,8 0 0 N 60 -
19.12.2018 03:00:00 -5,0 -14,1 5 3 WSW 50 -
19.12.2018 02:00:00 -5,0 -14,3 0 0 N 50 -
19.12.2018 01:00:00 -5,0 -14,8 4 2 N 50 -
19.12.2018 00:00:00 -5,0 -14,3 5 3 SSW 50 -
18.12.2018 23:00:00 -4,9 -15,0 8 4 SSW 50 -
18.12.2018 22:00:00 -5,0 -15,6 0 0 N 50 -
18.12.2018 21:00:00 -4,8 -14,6 4 2 N 50 -
18.12.2018 20:00:00 -4,7 -14,0 0 0 N 50 -
18.12.2018 19:00:00 -4,6 -14,0 0 0 N 80 -
18.12.2018 18:00:00 -4,4 -13,3 0 0 N 80 -
18.12.2018 17:00:00 -4,3 -12,9 0 0 N 80 30
18.12.2018 16:00:00 -3,8 -12,0 8 4 SW 70 60
18.12.2018 15:00:00 -3,9 -12,1 4 2 SW 70 60
18.12.2018 14:00:00 -4,0 -12,9 15 8 SW 70 60
18.12.2018 13:00:00 -4,0 -13,4 21 11 SW 80 60
18.12.2018 12:00:00 -4,0 -13,6 15 8 SW 80 60
18.12.2018 11:00:00 -4,0 -14,2 13 7 SW 80 60
18.12.2018 10:00:00 -4,4 -16,0 15 8 N 70 60
18.12.2018 09:00:00 -5,0 -16,8 11 6 NNE 70 54
18.12.2018 08:00:00 -5,8 -14,3 15 8 N 70 0
18.12.2018 07:00:00 -5,8 -14,6 18 10 N 50 -
18.12.2018 06:00:00 -6,5 -13,0 18 10 N 50 -
18.12.2018 05:00:00 -6,3 -12,4 18 10 N 50 -
18.12.2018 04:00:00 -6,2 -12,3 18 10 N 50 -
18.12.2018 03:00:00 -5,8 -12,3 22 12 N 50 -
18.12.2018 02:00:00 -5,6 -12,1 18 10 N 50 -
18.12.2018 01:00:00 -5,6 -12,6 22 12 N 50 -
18.12.2018 00:00:00 -5,8 -12,3 28 15 N 50 -
17.12.2018 23:00:00 -5,4 -12,4 28 15 N 50 -
17.12.2018 22:00:00 -5,6 -12,6 24 13 N 50 -
17.12.2018 21:00:00 -5,2 -11,7 18 10 N 50 -
17.12.2018 20:00:00 -5,1 -11,4 22 12 NNW 40 -
17.12.2018 19:00:00 -5,0 -11,6 18 10 NW 40 -
17.12.2018 18:00:00 -4,6 -11,4 22 12 WNW 50 -
17.12.2018 17:00:00 -4,4 -12,3 22 12 N 50 24
17.12.2018 16:00:00 -4,0 -12,9 22 12 W 60 30
17.12.2018 15:00:00 -5,0 -14,3 18 10 N 60 12
17.12.2018 14:00:00 -4,0 -13,9 15 8 N 60 60
17.12.2018 13:00:00 -4,0 -13,7 15 8 NNW 60 60
17.12.2018 12:00:00 -4,2 -13,1 18 10 N 60 6
17.12.2018 11:00:00 -4,2 -11,9 26 14 N 60 6
17.12.2018 10:00:00 -4,0 -9,6 22 12 N 60 0
17.12.2018 09:00:00 -4,0 -10,2 26 14 N 60 0
17.12.2018 08:00:00 -4,4 -9,2 24 13 N 50 0
17.12.2018 07:00:00 -4,6 -9,4 21 11 N 40 -
17.12.2018 06:00:00 -4,6 -8,5 22 12 N 40 -
17.12.2018 05:00:00 -4,6 -8,3 18 10 N 50 -
17.12.2018 04:00:00 -4,6 -8,3 18 10 N 50 -
17.12.2018 03:00:00 -4,8 -8,5 22 12 N 40 -
17.12.2018 02:00:00 -4,6 -8,3 22 12 N 40 -
17.12.2018 01:00:00 -5,0 -8,7 18 10 N 40 -
17.12.2018 00:00:00 -5,4 -11,5 13 7 N 40 -
16.12.2018 23:00:00 -5,0 -9,6 15 8 N 50 -
16.12.2018 22:00:00 -5,3 -13,1 13 7 NNE 50 -
16.12.2018 21:00:00 -5,2 -15,0 11 6 N 50 -
16.12.2018 20:00:00 -5,4 -13,7 11 6 N 50 -
16.12.2018 19:00:00 -5,4 -13,7 9 5 N 50 -
16.12.2018 18:00:00 -7,0 -16,7 18 10 N 50 -
16.12.2018 17:00:00 -6,4 -17,8 18 10 N 50 0
16.12.2018 16:00:00 -6,0 -19,0 15 8 N 60 0
16.12.2018 15:00:00 -5,0 -17,1 15 8 N 50 0
16.12.2018 14:00:00 -5,2 -16,1 18 10 N 60 12
16.12.2018 13:00:00 -5,4 -15,5 11 6 N 60 60
16.12.2018 12:00:00 -6,0 -17,4 15 8 N 60 30
16.12.2018 11:00:00 -6,2 -18,2 15 8 SW 50 0
16.12.2018 10:00:00 -6,0 -18,3 11 6 NNW 50 30
16.12.2018 09:00:00 -7,0 -19,2 11 6 WNW 50 12
16.12.2018 08:00:00 -6,6 -18,9 11 6 N 50 0
16.12.2018 07:00:00 -6,4 -20,0 13 7 NNW 50 -
16.12.2018 06:00:00 -8,0 -19,0 13 7 SSW 50 -
16.12.2018 05:00:00 -8,4 -18,5 15 8 SSW 50 -
16.12.2018 04:00:00 -8,2 -19,1 15 8 SW 50 -
16.12.2018 03:00:00 -7,8 -19,6 16 9 W 50 -
16.12.2018 02:00:00 -7,8 -19,6 18 10 W 50 -
16.12.2018 01:00:00 -8,0 -20,5 18 10 W 50 -
16.12.2018 00:00:00 -7,6 -20,1 18 10 W 60 -
15.12.2018 23:00:00 -7,2 -20,4 15 8 WNW 60 -
15.12.2018 22:00:00 -7,0 -20,2 18 10 N 60 -
15.12.2018 21:00:00 -7,5 -20,3 18 10 N 50 -
15.12.2018 20:00:00 -7,6 -20,4 18 10 N 60 -
15.12.2018 19:00:00 -8,0 -19,8 18 10 NNW 60 -
15.12.2018 18:00:00 -7,9 -19,1 18 10 N 70 -
15.12.2018 17:00:00 -7,8 -19,1 18 10 N 70 30
15.12.2018 16:00:00 -8,0 -18,7 15 8 NNW 70 60
15.12.2018 15:00:00 -8,0 -18,4 15 8 NW 70 60
15.12.2018 14:00:00 -8,8 -20,6 18 10 NNW 70 60
15.12.2018 13:00:00 -9,0 -18,8 22 12 N 70 60
15.12.2018 12:00:00 -9,4 -18,9 22 12 N 70 60
15.12.2018 11:00:00 -10,0 -18,9 15 8 WSW 70 60
15.12.2018 10:00:00 -10,0 -18,5 18 10 N 70 60
15.12.2018 09:00:00 -10,8 -18,7 24 13 N 70 60
15.12.2018 08:00:00 -11,0 -18,9 28 15 N 70 0
15.12.2018 07:00:00 -11,0 -18,9 24 13 N 60 -
15.12.2018 06:00:00 -11,0 -18,7 24 13 NNE 50 -
15.12.2018 05:00:00 -10,6 -18,6 22 12 NNE 60 -
15.12.2018 04:00:00 -10,6 -18,6 22 12 NNE 50 -
15.12.2018 03:00:00 -10,6 -17,9 18 10 WSW 50 -
15.12.2018 02:00:00 -10,8 -18,1 18 10 N 50 -
15.12.2018 01:00:00 -10,8 -17,7 18 10 N 50 -
15.12.2018 00:00:00 -10,4 -17,7 22 12 N 50 -
14.12.2018 23:00:00 -10,4 -17,7 18 10 N 50 -
14.12.2018 22:00:00 -10,2 -17,7 18 10 N 50 -
14.12.2018 21:00:00 -10,0 -17,8 15 8 NNW 50 -
14.12.2018 20:00:00 -10,2 -17,7 18 10 N 50 -
14.12.2018 19:00:00 -10,0 -18,0 18 10 N 50 -
14.12.2018 18:00:00 -9,8 -17,8 18 10 N 60 -
14.12.2018 17:00:00 -9,8 -19,0 18 10 N 60 36
14.12.2018 16:00:00 -9,3 -18,0 15 8 N 70 60
14.12.2018 15:00:00 -9,2 -19,0 15 8 N 70 60
14.12.2018 14:00:00 -9,4 -17,9 18 10 N 70 60
14.12.2018 13:00:00 -10,2 -17,5 18 10 N 70 60
14.12.2018 12:00:00 -10,8 -17,0 18 10 N 70 60
14.12.2018 11:00:00 -11,2 -15,9 15 8 N 70 60
14.12.2018 10:00:00 -12,0 -16,3 15 8 N 70 60
14.12.2018 09:00:00 -12,2 -16,9 18 10 N 60 54
14.12.2018 08:00:00 -12,4 -17,1 22 12 N 60 0
14.12.2018 07:00:00 -12,4 -16,7 18 10 N 60 -
14.12.2018 06:00:00 -12,2 -16,7 22 12 N 60 -
14.12.2018 05:00:00 -12,0 -16,4 18 10 N 50 -
14.12.2018 04:00:00 -12,0 -16,0 18 10 N 40 -
14.12.2018 03:00:00 -12,0 -15,0 15 8 N 40 -
14.12.2018 02:00:00 -11,8 -15,0 15 8 N 40 -
14.12.2018 01:00:00 -11,8 -14,6 15 8 N 40 -
14.12.2018 00:00:00 -11,8 -14,5 9 5 N 40 -
13.12.2018 23:00:00 -11,8 -14,5 9 5 N 40 -
13.12.2018 22:00:00 -11,0 -12,6 11 6 N 40 -
13.12.2018 21:00:00 -10,6 -13,5 0 0 N 30 -
13.12.2018 20:00:00 -9,8 -13,4 0 0 N 30 -
13.12.2018 19:00:00 -9,6 -14,6 0 0 N 30 -
13.12.2018 18:00:00 -9,6 -15,7 8 4 N 30 -
13.12.2018 17:00:00 -9,0 -15,8 0 0 N 30 30
13.12.2018 16:00:00 -8,8 -16,2 0 0 N 30 42
13.12.2018 15:00:00 -8,8 -15,4 5 3 NNE 30 36
13.12.2018 14:00:00 -9,0 -15,3 0 0 N 40 60
13.12.2018 13:00:00 -9,2 -15,5 0 0 N 50 60
13.12.2018 12:00:00 -9,6 -15,9 4 2 N 50 60
13.12.2018 11:00:00 -10,0 -15,1 9 5 S 50 60
13.12.2018 10:00:00 -10,4 -16,5 11 6 S 50 60
13.12.2018 09:00:00 -10,6 -15,9 11 6 S 50 60
13.12.2018 08:00:00 -11,0 -15,7 15 8 S 50 6
13.12.2018 07:00:00 -11,4 -16,3 15 8 S 50 -
13.12.2018 06:00:00 -11,4 -18,6 11 6 S 70 -
13.12.2018 05:00:00 -11,0 -18,3 15 8 S 80 -

tt = temperature
td = dewpoint
ff = wind speed
dd = wind direction
vv = visibility
sd = sunshine duration

Next stations